sensor_id;sensor_type;location;lat;lon;timestamp;P1;durP1;ratioP1;P2;durP2;ratioP2
25932;SDS011;13731;51.166;4.474;2022-08-05T00:00:35;208.35;;;198.80;;
25932;SDS011;13731;51.166;4.474;2022-08-05T00:03:01;207.00;;;196.93;;
25932;SDS011;13731;51.166;4.474;2022-08-05T00:05:27;226.05;;;215.45;;
25932;SDS011;13731;51.166;4.474;2022-08-05T00:07:52;209.77;;;199.75;;
25932;SDS011;13731;51.166;4.474;2022-08-05T00:10:18;220.18;;;209.63;;
25932;SDS011;13731;51.166;4.474;2022-08-05T00:12:44;227.98;;;217.25;;
25932;SDS011;13731;51.166;4.474;2022-08-05T00:15:10;228.68;;;217.85;;
25932;SDS011;13731;51.166;4.474;2022-08-05T00:17:36;216.93;;;206.65;;
25932;SDS011;13731;51.166;4.474;2022-08-05T00:20:02;199.77;;;190.45;;
25932;SDS011;13731;51.166;4.474;2022-08-05T00:22:28;196.73;;;187.55;;
25932;SDS011;13731;51.166;4.474;2022-08-05T00:24:54;214.57;;;204.25;;
25932;SDS011;13731;51.166;4.474;2022-08-05T00:27:20;219.65;;;209.25;;
25932;SDS011;13731;51.166;4.474;2022-08-05T00:29:46;214.93;;;204.32;;
25932;SDS011;13731;51.166;4.474;2022-08-05T00:32:11;185.98;;;177.18;;
25932;SDS011;13731;51.166;4.474;2022-08-05T00:34:38;196.43;;;186.90;;
25932;SDS011;13731;51.166;4.474;2022-08-05T00:37:05;198.35;;;188.57;;
25932;SDS011;13731;51.166;4.474;2022-08-05T00:39:31;216.45;;;206.27;;
25932;SDS011;13731;51.166;4.474;2022-08-05T00:41:56;223.50;;;212.75;;
25932;SDS011;13731;51.166;4.474;2022-08-05T00:44:22;225.80;;;214.65;;
25932;SDS011;13731;51.166;4.474;2022-08-05T00:46:49;213.80;;;203.80;;
25932;SDS011;13731;51.166;4.474;2022-08-05T00:49:14;233.75;;;222.20;;
25932;SDS011;13731;51.166;4.474;2022-08-05T00:51:43;211.75;;;201.65;;
25932;SDS011;13731;51.166;4.474;2022-08-05T00:54:12;237.88;;;226.25;;
25932;SDS011;13731;51.166;4.474;2022-08-05T00:56:38;246.50;;;234.60;;
25932;SDS011;13731;51.166;4.474;2022-08-05T00:59:05;287.00;;;272.25;;
25932;SDS011;13731;51.166;4.474;2022-08-05T01:01:31;319.23;;;302.92;;
25932;SDS011;13731;51.166;4.474;2022-08-05T01:03:57;341.35;;;324.48;;
25932;SDS011;13731;51.166;4.474;2022-08-05T01:06:22;362.27;;;344.10;;
25932;SDS011;13731;51.166;4.474;2022-08-05T01:08:48;359.45;;;341.35;;
25932;SDS011;13731;51.166;4.474;2022-08-05T01:11:16;352.85;;;335.08;;
25932;SDS011;13731;51.166;4.474;2022-08-05T01:13:47;338.27;;;321.35;;
25932;SDS011;13731;51.166;4.474;2022-08-05T01:16:36;266.38;;;253.20;;
25932;SDS011;13731;51.166;4.474;2022-08-05T01:30:08;245.88;;;233.90;;
25932;SDS011;13731;51.166;4.474;2022-08-05T01:32:34;254.55;;;242.13;;
25932;SDS011;13731;51.166;4.474;2022-08-05T01:35:05;296.17;;;281.50;;
25932;SDS011;13731;51.166;4.474;2022-08-05T01:37:41;294.45;;;279.92;;
25932;SDS011;13731;51.166;4.474;2022-08-05T01:40:10;279.10;;;264.65;;
25932;SDS011;13731;51.166;4.474;2022-08-05T01:42:39;283.42;;;269.30;;
25932;SDS011;13731;51.166;4.474;2022-08-05T01:45:06;286.38;;;271.80;;
25932;SDS011;13731;51.166;4.474;2022-08-05T01:47:34;292.52;;;277.88;;
25932;SDS011;13731;51.166;4.474;2022-08-05T01:50:14;321.15;;;304.73;;
25932;SDS011;13731;51.166;4.474;2022-08-05T01:52:44;295.15;;;279.55;;
25932;SDS011;13731;51.166;4.474;2022-08-05T01:55:13;327.27;;;310.65;;
25932;SDS011;13731;51.166;4.474;2022-08-05T01:57:42;341.77;;;324.40;;
25932;SDS011;13731;51.166;4.474;2022-08-05T02:00:11;347.63;;;329.88;;
25932;SDS011;13731;51.166;4.474;2022-08-05T02:02:40;351.17;;;333.13;;
25932;SDS011;13731;51.166;4.474;2022-08-05T02:05:12;334.77;;;317.77;;
25932;SDS011;13731;51.166;4.474;2022-08-05T02:07:39;355.30;;;337.67;;
25932;SDS011;13731;51.166;4.474;2022-08-05T02:10:07;366.17;;;347.50;;
25932;SDS011;13731;51.166;4.474;2022-08-05T02:12:45;344.10;;;326.63;;
25932;SDS011;13731;51.166;4.474;2022-08-05T02:17:54;335.58;;;318.17;;
25932;SDS011;13731;51.166;4.474;2022-08-05T02:20:31;307.30;;;291.85;;
25932;SDS011;13731;51.166;4.474;2022-08-05T02:23:04;330.83;;;313.35;;
25932;SDS011;13731;51.166;4.474;2022-08-05T02:25:35;331.85;;;315.10;;
25932;SDS011;13731;51.166;4.474;2022-08-05T02:28:03;324.17;;;307.75;;
25932;SDS011;13731;51.166;4.474;2022-08-05T02:30:41;354.05;;;336.05;;
25932;SDS011;13731;51.166;4.474;2022-08-05T02:33:13;312.88;;;297.27;;
25932;SDS011;13731;51.166;4.474;2022-08-05T02:35:43;333.95;;;317.20;;
25932;SDS011;13731;51.166;4.474;2022-08-05T02:38:11;358.95;;;340.70;;
25932;SDS011;13731;51.166;4.474;2022-08-05T02:40:40;359.63;;;341.67;;
25932;SDS011;13731;51.166;4.474;2022-08-05T02:45:35;225.35;;;213.93;;
25932;SDS011;13731;51.166;4.474;2022-08-05T02:48:02;313.70;;;297.33;;
25932;SDS011;13731;51.166;4.474;2022-08-05T02:50:28;330.55;;;313.63;;
25932;SDS011;13731;51.166;4.474;2022-08-05T02:52:55;352.48;;;334.38;;
25932;SDS011;13731;51.166;4.474;2022-08-05T02:55:22;351.77;;;333.90;;
25932;SDS011;13731;51.166;4.474;2022-08-05T02:57:48;351.95;;;333.63;;
25932;SDS011;13731;51.166;4.474;2022-08-05T03:00:15;338.77;;;321.85;;
25932;SDS011;13731;51.166;4.474;2022-08-05T03:02:42;343.48;;;325.88;;
25932;SDS011;13731;51.166;4.474;2022-08-05T03:05:10;334.80;;;317.95;;
25932;SDS011;13731;51.166;4.474;2022-08-05T03:07:38;332.00;;;314.98;;
25932;SDS011;13731;51.166;4.474;2022-08-05T03:10:06;334.17;;;316.95;;
25932;SDS011;13731;51.166;4.474;2022-08-05T03:12:36;309.65;;;294.05;;
25932;SDS011;13731;51.166;4.474;2022-08-05T03:15:06;304.17;;;288.52;;
25932;SDS011;13731;51.166;4.474;2022-08-05T03:17:34;298.95;;;283.88;;
25932;SDS011;13731;51.166;4.474;2022-08-05T03:20:00;309.00;;;293.70;;
25932;SDS011;13731;51.166;4.474;2022-08-05T03:22:26;301.15;;;286.30;;
25932;SDS011;13731;51.166;4.474;2022-08-05T03:24:52;304.70;;;289.20;;
25932;SDS011;13731;51.166;4.474;2022-08-05T03:27:19;288.33;;;273.73;;
25932;SDS011;13731;51.166;4.474;2022-08-05T03:29:45;290.48;;;275.67;;
25932;SDS011;13731;51.166;4.474;2022-08-05T03:32:11;289.20;;;274.88;;
25932;SDS011;13731;51.166;4.474;2022-08-05T03:34:37;274.30;;;260.88;;
25932;SDS011;13731;51.166;4.474;2022-08-05T03:37:04;274.58;;;260.92;;
25932;SDS011;13731;51.166;4.474;2022-08-05T03:39:30;292.23;;;277.15;;
25932;SDS011;13731;51.166;4.474;2022-08-05T03:41:57;280.10;;;266.58;;
25932;SDS011;13731;51.166;4.474;2022-08-05T03:44:23;280.02;;;266.40;;
25932;SDS011;13731;51.166;4.474;2022-08-05T03:46:50;269.77;;;256.48;;
25932;SDS011;13731;51.166;4.474;2022-08-05T03:49:16;262.85;;;250.00;;
25932;SDS011;13731;51.166;4.474;2022-08-05T03:51:44;251.65;;;239.40;;
25932;SDS011;13731;51.166;4.474;2022-08-05T03:56:59;171.25;;;163.13;;
25932;SDS011;13731;51.166;4.474;2022-08-05T03:59:33;159.00;;;151.20;;
25932;SDS011;13731;51.166;4.474;2022-08-05T04:02:04;167.93;;;160.02;;
25932;SDS011;13731;51.166;4.474;2022-08-05T04:04:32;163.45;;;155.40;;
25932;SDS011;13731;51.166;4.474;2022-08-05T04:06:59;166.27;;;157.82;;
25932;SDS011;13731;51.166;4.474;2022-08-05T04:09:25;167.10;;;158.73;;
25932;SDS011;13731;51.166;4.474;2022-08-05T04:11:54;172.90;;;164.45;;
25932;SDS011;13731;51.166;4.474;2022-08-05T04:14:20;161.82;;;153.98;;
25932;SDS011;13731;51.166;4.474;2022-08-05T04:16:47;184.57;;;175.10;;
25932;SDS011;13731;51.166;4.474;2022-08-05T04:19:13;164.50;;;156.02;;
25932;SDS011;13731;51.166;4.474;2022-08-05T04:21:39;189.00;;;179.30;;
25932;SDS011;13731;51.166;4.474;2022-08-05T04:24:05;160.77;;;152.73;;
25932;SDS011;13731;51.166;4.474;2022-08-05T04:26:32;164.38;;;156.30;;
25932;SDS011;13731;51.166;4.474;2022-08-05T04:28:58;169.57;;;161.23;;
25932;SDS011;13731;51.166;4.474;2022-08-05T04:31:24;173.43;;;165.02;;
25932;SDS011;13731;51.166;4.474;2022-08-05T04:33:50;176.30;;;167.50;;
25932;SDS011;13731;51.166;4.474;2022-08-05T04:36:15;166.90;;;158.77;;
25932;SDS011;13731;51.166;4.474;2022-08-05T04:38:42;169.43;;;160.77;;
25932;SDS011;13731;51.166;4.474;2022-08-05T04:41:08;172.93;;;164.52;;
25932;SDS011;13731;51.166;4.474;2022-08-05T04:43:34;142.00;;;135.13;;
25932;SDS011;13731;51.166;4.474;2022-08-05T04:46:00;140.35;;;132.93;;
25932;SDS011;13731;51.166;4.474;2022-08-05T04:48:27;127.60;;;121.25;;
25932;SDS011;13731;51.166;4.474;2022-08-05T04:50:53;117.22;;;111.25;;
25932;SDS011;13731;51.166;4.474;2022-08-05T04:53:19;111.35;;;105.68;;
25932;SDS011;13731;51.166;4.474;2022-08-05T04:55:45;111.30;;;105.93;;
25932;SDS011;13731;51.166;4.474;2022-08-05T04:58:12;105.95;;;100.75;;
25932;SDS011;13731;51.166;4.474;2022-08-05T05:00:40;111.90;;;106.30;;
25932;SDS011;13731;51.166;4.474;2022-08-05T05:03:07;109.20;;;103.78;;
25932;SDS011;13731;51.166;4.474;2022-08-05T05:05:33;107.47;;;101.57;;
25932;SDS011;13731;51.166;4.474;2022-08-05T05:08:00;105.65;;;100.10;;
25932;SDS011;13731;51.166;4.474;2022-08-05T05:10:29;105.15;;;99.68;;
25932;SDS011;13731;51.166;4.474;2022-08-05T05:12:56;107.72;;;102.13;;
25932;SDS011;13731;51.166;4.474;2022-08-05T05:15:22;107.97;;;102.32;;
25932;SDS011;13731;51.166;4.474;2022-08-05T05:17:49;119.97;;;113.07;;
25932;SDS011;13731;51.166;4.474;2022-08-05T05:20:14;104.20;;;98.53;;
25932;SDS011;13731;51.166;4.474;2022-08-05T05:22:40;109.97;;;104.40;;
25932;SDS011;13731;51.166;4.474;2022-08-05T05:25:07;109.63;;;103.88;;
25932;SDS011;13731;51.166;4.474;2022-08-05T05:27:34;110.63;;;105.10;;
25932;SDS011;13731;51.166;4.474;2022-08-05T05:30:00;110.93;;;105.45;;
25932;SDS011;13731;51.166;4.474;2022-08-05T05:32:27;111.75;;;106.22;;
25932;SDS011;13731;51.166;4.474;2022-08-05T05:34:53;107.20;;;101.68;;
25932;SDS011;13731;51.166;4.474;2022-08-05T05:37:18;109.60;;;104.25;;
25932;SDS011;13731;51.166;4.474;2022-08-05T05:39:44;113.80;;;108.18;;
25932;SDS011;13731;51.166;4.474;2022-08-05T05:42:10;109.22;;;103.60;;
25932;SDS011;13731;51.166;4.474;2022-08-05T05:44:36;127.88;;;121.68;;
25932;SDS011;13731;51.166;4.474;2022-08-05T05:47:02;116.05;;;110.20;;
25932;SDS011;13731;51.166;4.474;2022-08-05T05:49:28;114.93;;;109.25;;
25932;SDS011;13731;51.166;4.474;2022-08-05T05:51:54;171.25;;;162.30;;
25932;SDS011;13731;51.166;4.474;2022-08-05T05:54:19;118.47;;;112.35;;
25932;SDS011;13731;51.166;4.474;2022-08-05T05:56:45;124.50;;;117.88;;
25932;SDS011;13731;51.166;4.474;2022-08-05T05:59:11;125.85;;;119.93;;
25932;SDS011;13731;51.166;4.474;2022-08-05T06:01:38;130.25;;;124.07;;
25932;SDS011;13731;51.166;4.474;2022-08-05T06:04:11;135.13;;;128.85;;
25932;SDS011;13731;51.166;4.474;2022-08-05T06:06:41;190.43;;;181.15;;
25932;SDS011;13731;51.166;4.474;2022-08-05T06:09:08;140.60;;;133.82;;
25932;SDS011;13731;51.166;4.474;2022-08-05T06:11:34;149.35;;;142.20;;
25932;SDS011;13731;51.166;4.474;2022-08-05T06:14:00;157.07;;;149.60;;
25932;SDS011;13731;51.166;4.474;2022-08-05T06:16:26;156.48;;;148.23;;
25932;SDS011;13731;51.166;4.474;2022-08-05T06:18:52;158.35;;;150.82;;
25932;SDS011;13731;51.166;4.474;2022-08-05T06:21:18;153.63;;;146.23;;
25932;SDS011;13731;51.166;4.474;2022-08-05T06:23:44;176.82;;;168.23;;
25932;SDS011;13731;51.166;4.474;2022-08-05T06:26:10;182.52;;;173.35;;
25932;SDS011;13731;51.166;4.474;2022-08-05T06:28:36;178.65;;;170.30;;
25932;SDS011;13731;51.166;4.474;2022-08-05T06:31:02;196.50;;;186.60;;
25932;SDS011;13731;51.166;4.474;2022-08-05T06:33:28;205.25;;;195.52;;
25932;SDS011;13731;51.166;4.474;2022-08-05T06:35:54;174.00;;;165.57;;
25932;SDS011;13731;51.166;4.474;2022-08-05T06:38:20;149.35;;;142.20;;
25932;SDS011;13731;51.166;4.474;2022-08-05T06:40:46;128.93;;;122.75;;
25932;SDS011;13731;51.166;4.474;2022-08-05T06:43:12;101.65;;;96.30;;
25932;SDS011;13731;51.166;4.474;2022-08-05T06:45:37;93.63;;;89.03;;
25932;SDS011;13731;51.166;4.474;2022-08-05T06:48:03;92.63;;;88.13;;
25932;SDS011;13731;51.166;4.474;2022-08-05T06:50:29;84.82;;;80.85;;
25932;SDS011;13731;51.166;4.474;2022-08-05T06:52:55;80.15;;;76.03;;
25932;SDS011;13731;51.166;4.474;2022-08-05T06:55:21;65.93;;;62.63;;
25932;SDS011;13731;51.166;4.474;2022-08-05T06:57:46;63.92;;;60.50;;
25932;SDS011;13731;51.166;4.474;2022-08-05T07:00:12;62.50;;;59.28;;
25932;SDS011;13731;51.166;4.474;2022-08-05T07:02:45;67.80;;;64.15;;
25932;SDS011;13731;51.166;4.474;2022-08-05T07:05:12;68.03;;;64.65;;
25932;SDS011;13731;51.166;4.474;2022-08-05T07:07:38;73.10;;;69.00;;
25932;SDS011;13731;51.166;4.474;2022-08-05T07:10:05;64.75;;;61.55;;
25932;SDS011;13731;51.166;4.474;2022-08-05T07:12:32;54.35;;;51.47;;
25932;SDS011;13731;51.166;4.474;2022-08-05T07:15:17;41.08;;;39.03;;
25932;SDS011;13731;51.166;4.474;2022-08-05T07:18:01;44.10;;;41.42;;
25932;SDS011;13731;51.166;4.474;2022-08-05T07:20:27;58.40;;;55.33;;
25932;SDS011;13731;51.166;4.474;2022-08-05T07:22:53;71.22;;;67.25;;
25932;SDS011;13731;51.166;4.474;2022-08-05T07:25:19;78.30;;;74.45;;
25932;SDS011;13731;51.166;4.474;2022-08-05T07:27:45;84.07;;;79.97;;
25932;SDS011;13731;51.166;4.474;2022-08-05T07:30:12;63.20;;;59.63;;
25932;SDS011;13731;51.166;4.474;2022-08-05T07:32:38;61.28;;;58.17;;
25932;SDS011;13731;51.166;4.474;2022-08-05T07:35:07;46.10;;;43.88;;
25932;SDS011;13731;51.166;4.474;2022-08-05T07:37:33;41.72;;;39.60;;
25932;SDS011;13731;51.166;4.474;2022-08-05T07:39:59;46.15;;;43.85;;
25932;SDS011;13731;51.166;4.474;2022-08-05T07:42:25;36.72;;;34.63;;
25932;SDS011;13731;51.166;4.474;2022-08-05T07:44:51;38.50;;;36.33;;
25932;SDS011;13731;51.166;4.474;2022-08-05T07:47:17;58.10;;;55.30;;
25932;SDS011;13731;51.166;4.474;2022-08-05T07:49:43;38.92;;;36.97;;
25932;SDS011;13731;51.166;4.474;2022-08-05T07:52:09;34.65;;;32.75;;
25932;SDS011;13731;51.166;4.474;2022-08-05T07:54:34;40.60;;;38.35;;
25932;SDS011;13731;51.166;4.474;2022-08-05T07:57:01;43.30;;;40.85;;
25932;SDS011;13731;51.166;4.474;2022-08-05T07:59:27;41.45;;;39.33;;
25932;SDS011;13731;51.166;4.474;2022-08-05T08:01:53;45.53;;;43.15;;
25932;SDS011;13731;51.166;4.474;2022-08-05T08:04:18;52.40;;;49.25;;
25932;SDS011;13731;51.166;4.474;2022-08-05T08:06:45;46.70;;;44.40;;
25932;SDS011;13731;51.166;4.474;2022-08-05T08:09:10;44.85;;;42.38;;
25932;SDS011;13731;51.166;4.474;2022-08-05T08:11:36;46.50;;;44.40;;
25932;SDS011;13731;51.166;4.474;2022-08-05T08:14:02;57.20;;;54.40;;
25932;SDS011;13731;51.166;4.474;2022-08-05T08:16:28;83.72;;;79.82;;
25932;SDS011;13731;51.166;4.474;2022-08-05T08:18:54;83.28;;;79.35;;
25932;SDS011;13731;51.166;4.474;2022-08-05T08:21:20;85.22;;;81.03;;
25932;SDS011;13731;51.166;4.474;2022-08-05T08:23:46;107.55;;;102.45;;
25932;SDS011;13731;51.166;4.474;2022-08-05T08:26:12;114.90;;;109.68;;
25932;SDS011;13731;51.166;4.474;2022-08-05T08:28:38;97.97;;;93.45;;
25932;SDS011;13731;51.166;4.474;2022-08-05T08:31:07;112.20;;;106.88;;
25932;SDS011;13731;51.166;4.474;2022-08-05T08:35:59;60.30;;;57.53;;
25932;SDS011;13731;51.166;4.474;2022-08-05T08:38:25;87.40;;;83.13;;
25932;SDS011;13731;51.166;4.474;2022-08-05T08:40:53;105.93;;;100.85;;
25932;SDS011;13731;51.166;4.474;2022-08-05T08:43:19;149.40;;;142.52;;
25932;SDS011;13731;51.166;4.474;2022-08-05T08:45:46;139.68;;;133.43;;
25932;SDS011;13731;51.166;4.474;2022-08-05T08:48:17;137.40;;;131.10;;
25932;SDS011;13731;51.166;4.474;2022-08-05T08:50:45;143.93;;;136.70;;
25932;SDS011;13731;51.166;4.474;2022-08-05T08:53:11;115.03;;;109.57;;
25932;SDS011;13731;51.166;4.474;2022-08-05T08:58:07;57.15;;;54.53;;
25932;SDS011;13731;51.166;4.474;2022-08-05T09:00:34;84.25;;;80.15;;
25932;SDS011;13731;51.166;4.474;2022-08-05T09:03:01;81.65;;;77.85;;
25932;SDS011;13731;51.166;4.474;2022-08-05T09:05:29;80.95;;;77.10;;
25932;SDS011;13731;51.166;4.474;2022-08-05T09:07:55;79.38;;;75.38;;
25932;SDS011;13731;51.166;4.474;2022-08-05T09:10:21;56.03;;;53.20;;
25932;SDS011;13731;51.166;4.474;2022-08-05T09:12:47;59.03;;;55.97;;
25932;SDS011;13731;51.166;4.474;2022-08-05T09:15:13;85.80;;;81.82;;
25932;SDS011;13731;51.166;4.474;2022-08-05T09:17:39;57.63;;;54.97;;
25932;SDS011;13731;51.166;4.474;2022-08-05T09:20:06;41.72;;;39.83;;
25932;SDS011;13731;51.166;4.474;2022-08-05T09:23:33;30.90;;;29.48;;
25932;SDS011;13731;51.166;4.474;2022-08-05T09:25:29;27.65;;;26.42;;
25932;SDS011;13731;51.166;4.474;2022-08-05T09:27:55;22.42;;;21.33;;
25932;SDS011;13731;51.166;4.474;2022-08-05T09:30:21;23.27;;;22.15;;
25932;SDS011;13731;51.166;4.474;2022-08-05T09:32:47;28.38;;;27.17;;
25932;SDS011;13731;51.166;4.474;2022-08-05T09:35:14;30.60;;;29.30;;
25932;SDS011;13731;51.166;4.474;2022-08-05T09:37:48;31.20;;;29.65;;
25932;SDS011;13731;51.166;4.474;2022-08-05T09:40:28;29.83;;;28.38;;
25932;SDS011;13731;51.166;4.474;2022-08-05T09:42:58;31.65;;;29.90;;
25932;SDS011;13731;51.166;4.474;2022-08-05T09:45:33;29.25;;;27.60;;
25932;SDS011;13731;51.166;4.474;2022-08-05T09:50:50;33.10;;;31.63;;
25932;SDS011;13731;51.166;4.474;2022-08-05T09:53:30;25.85;;;24.70;;
25932;SDS011;13731;51.166;4.474;2022-08-05T09:56:23;22.70;;;21.50;;
25932;SDS011;13731;51.166;4.474;2022-08-05T09:58:57;20.70;;;19.60;;
25932;SDS011;13731;51.166;4.474;2022-08-05T10:01:29;22.00;;;20.97;;
25932;SDS011;13731;51.166;4.474;2022-08-05T10:06:27;27.67;;;26.23;;
25932;SDS011;13731;51.166;4.474;2022-08-05T10:08:54;23.65;;;22.50;;
25932;SDS011;13731;51.166;4.474;2022-08-05T10:11:23;21.23;;;20.15;;
25932;SDS011;13731;51.166;4.474;2022-08-05T10:13:49;22.88;;;21.77;;
25932;SDS011;13731;51.166;4.474;2022-08-05T10:16:29;19.15;;;18.17;;
25932;SDS011;13731;51.166;4.474;2022-08-05T10:18:59;27.15;;;25.67;;
25932;SDS011;13731;51.166;4.474;2022-08-05T10:21:26;21.27;;;20.27;;
25932;SDS011;13731;51.166;4.474;2022-08-05T10:23:53;20.08;;;18.83;;
25932;SDS011;13731;51.166;4.474;2022-08-05T10:26:20;23.35;;;21.95;;
25932;SDS011;13731;51.166;4.474;2022-08-05T10:28:47;31.95;;;30.35;;
25932;SDS011;13731;51.166;4.474;2022-08-05T10:31:16;56.47;;;53.80;;
25932;SDS011;13731;51.166;4.474;2022-08-05T10:33:42;56.20;;;53.13;;
25932;SDS011;13731;51.166;4.474;2022-08-05T10:36:08;55.92;;;53.22;;
25932;SDS011;13731;51.166;4.474;2022-08-05T10:38:34;22.95;;;21.67;;
25932;SDS011;13731;51.166;4.474;2022-08-05T10:46:12;9.38;;;8.88;;
25932;SDS011;13731;51.166;4.474;2022-08-05T10:48:43;8.65;;;8.13;;
25932;SDS011;13731;51.166;4.474;2022-08-05T10:56:17;7.88;;;5.78;;
25932;SDS011;13731;51.166;4.474;2022-08-05T11:01:15;7.40;;;6.57;;
25932;SDS011;13731;51.166;4.474;2022-08-05T11:07:12;5.38;;;4.97;;
25932;SDS011;13731;51.166;4.474;2022-08-05T11:09:36;7.70;;;5.32;;
25932;SDS011;13731;51.166;4.474;2022-08-05T11:17:43;23.70;;;22.60;;
25932;SDS011;13731;51.166;4.474;2022-08-05T11:26:06;6.50;;;5.90;;
25932;SDS011;13731;51.166;4.474;2022-08-05T11:28:36;5.75;;;5.40;;
25932;SDS011;13731;51.166;4.474;2022-08-05T11:33:32;6.00;;;5.50;;
25932;SDS011;13731;51.166;4.474;2022-08-05T11:36:12;6.05;;;5.00;;
25932;SDS011;13731;51.166;4.474;2022-08-05T11:41:15;6.00;;;5.70;;
25932;SDS011;13731;51.166;4.474;2022-08-05T11:43:42;6.13;;;5.80;;
25932;SDS011;13731;51.166;4.474;2022-08-05T11:46:09;6.38;;;6.05;;
25932;SDS011;13731;51.166;4.474;2022-08-05T11:48:35;7.65;;;7.03;;
25932;SDS011;13731;51.166;4.474;2022-08-05T11:51:06;8.77;;;8.00;;
25932;SDS011;13731;51.166;4.474;2022-08-05T11:53:32;8.68;;;8.23;;
25932;SDS011;13731;51.166;4.474;2022-08-05T11:55:59;7.15;;;6.65;;
25932;SDS011;13731;51.166;4.474;2022-08-05T11:58:32;10.30;;;9.80;;
25932;SDS011;13731;51.166;4.474;2022-08-05T12:01:00;7.15;;;6.85;;
25932;SDS011;13731;51.166;4.474;2022-08-05T12:03:39;9.25;;;8.52;;
25932;SDS011;13731;51.166;4.474;2022-08-05T12:06:12;12.18;;;11.30;;
25932;SDS011;13731;51.166;4.474;2022-08-05T12:08:43;10.77;;;9.88;;
25932;SDS011;13731;51.166;4.474;2022-08-05T12:13:55;6.70;;;6.30;;
25932;SDS011;13731;51.166;4.474;2022-08-05T12:16:27;10.68;;;10.13;;
25932;SDS011;13731;51.166;4.474;2022-08-05T12:18:57;14.25;;;13.45;;
25932;SDS011;13731;51.166;4.474;2022-08-05T12:21:24;11.35;;;10.65;;
25932;SDS011;13731;51.166;4.474;2022-08-05T12:26:32;13.93;;;13.23;;
25932;SDS011;13731;51.166;4.474;2022-08-05T12:29:10;11.88;;;10.95;;
25932;SDS011;13731;51.166;4.474;2022-08-05T12:31:43;14.18;;;13.45;;
25932;SDS011;13731;51.166;4.474;2022-08-05T12:34:21;5.78;;;5.43;;
25932;SDS011;13731;51.166;4.474;2022-08-05T12:36:52;8.40;;;8.00;;
25932;SDS011;13731;51.166;4.474;2022-08-05T12:39:21;12.95;;;12.10;;
25932;SDS011;13731;51.166;4.474;2022-08-05T12:41:48;12.68;;;11.70;;
25932;SDS011;13731;51.166;4.474;2022-08-05T12:44:15;11.70;;;11.10;;
25932;SDS011;13731;51.166;4.474;2022-08-05T12:46:42;10.50;;;10.00;;
25932;SDS011;13731;51.166;4.474;2022-08-05T12:49:16;33.78;;;31.98;;
25932;SDS011;13731;51.166;4.474;2022-08-05T12:51:49;11.77;;;11.10;;
25932;SDS011;13731;51.166;4.474;2022-08-05T12:54:20;10.95;;;10.40;;
25932;SDS011;13731;51.166;4.474;2022-08-05T12:56:57;9.50;;;9.20;;
25932;SDS011;13731;51.166;4.474;2022-08-05T12:59:26;7.65;;;7.05;;
25932;SDS011;13731;51.166;4.474;2022-08-05T13:04:25;7.60;;;7.00;;
25932;SDS011;13731;51.166;4.474;2022-08-05T13:06:54;6.63;;;6.22;;
25932;SDS011;13731;51.166;4.474;2022-08-05T13:11:54;9.23;;;8.60;;
25932;SDS011;13731;51.166;4.474;2022-08-05T13:14:42;7.40;;;7.10;;
25932;SDS011;13731;51.166;4.474;2022-08-05T13:17:25;7.82;;;7.28;;
25932;SDS011;13731;51.166;4.474;2022-08-05T13:22:29;5.80;;;5.50;;
25932;SDS011;13731;51.166;4.474;2022-08-05T13:24:59;7.43;;;7.13;;
25932;SDS011;13731;51.166;4.474;2022-08-05T13:27:29;11.38;;;10.70;;
25932;SDS011;13731;51.166;4.474;2022-08-05T13:29:57;13.55;;;12.85;;
25932;SDS011;13731;51.166;4.474;2022-08-05T13:32:23;12.77;;;12.18;;
25932;SDS011;13731;51.166;4.474;2022-08-05T13:34:50;16.77;;;16.08;;
25932;SDS011;13731;51.166;4.474;2022-08-05T13:37:17;13.40;;;12.77;;
25932;SDS011;13731;51.166;4.474;2022-08-05T13:39:45;13.00;;;12.40;;
25932;SDS011;13731;51.166;4.474;2022-08-05T13:42:12;8.82;;;8.35;;
25932;SDS011;13731;51.166;4.474;2022-08-05T13:44:38;6.90;;;5.57;;
25932;SDS011;13731;51.166;4.474;2022-08-05T13:47:04;6.45;;;6.07;;
25932;SDS011;13731;51.166;4.474;2022-08-05T13:49:30;9.90;;;9.27;;
25932;SDS011;13731;51.166;4.474;2022-08-05T13:51:56;9.38;;;8.75;;
25932;SDS011;13731;51.166;4.474;2022-08-05T13:54:22;13.48;;;12.55;;
25932;SDS011;13731;51.166;4.474;2022-08-05T13:56:50;17.63;;;16.63;;
25932;SDS011;13731;51.166;4.474;2022-08-05T13:59:23;13.15;;;12.55;;
25932;SDS011;13731;51.166;4.474;2022-08-05T14:01:48;12.18;;;11.75;;
25932;SDS011;13731;51.166;4.474;2022-08-05T14:04:14;14.60;;;14.00;;
25932;SDS011;13731;51.166;4.474;2022-08-05T14:06:59;16.38;;;14.27;;
25932;SDS011;13731;51.166;4.474;2022-08-05T14:09:25;15.38;;;14.38;;
25932;SDS011;13731;51.166;4.474;2022-08-05T14:11:50;14.73;;;14.10;;
25932;SDS011;13731;51.166;4.474;2022-08-05T14:14:16;28.40;;;27.20;;
25932;SDS011;13731;51.166;4.474;2022-08-05T14:16:42;12.95;;;12.25;;
25932;SDS011;13731;51.166;4.474;2022-08-05T14:19:08;12.55;;;11.70;;
25932;SDS011;13731;51.166;4.474;2022-08-05T14:21:34;15.07;;;14.40;;
25932;SDS011;13731;51.166;4.474;2022-08-05T14:24:00;11.55;;;11.15;;
25932;SDS011;13731;51.166;4.474;2022-08-05T14:26:26;12.40;;;11.73;;
25932;SDS011;13731;51.166;4.474;2022-08-05T14:28:51;11.95;;;11.35;;
25932;SDS011;13731;51.166;4.474;2022-08-05T14:31:17;8.68;;;8.07;;
25932;SDS011;13731;51.166;4.474;2022-08-05T14:33:44;5.30;;;5.00;;
25932;SDS011;13731;51.166;4.474;2022-08-05T14:36:15;7.25;;;7.00;;
25932;SDS011;13731;51.166;4.474;2022-08-05T14:38:41;7.50;;;7.05;;
25932;SDS011;13731;51.166;4.474;2022-08-05T14:41:07;5.20;;;5.00;;
25932;SDS011;13731;51.166;4.474;2022-08-05T14:43:34;6.47;;;6.05;;
25932;SDS011;13731;51.166;4.474;2022-08-05T14:46:00;5.47;;;5.05;;
25932;SDS011;13731;51.166;4.474;2022-08-05T14:48:26;5.85;;;5.55;;
25932;SDS011;13731;51.166;4.474;2022-08-05T14:50:52;7.22;;;6.63;;
25932;SDS011;13731;51.166;4.474;2022-08-05T14:53:18;7.57;;;7.13;;
25932;SDS011;13731;51.166;4.474;2022-08-05T14:55:44;7.95;;;7.53;;
25932;SDS011;13731;51.166;4.474;2022-08-05T14:58:09;5.55;;;5.22;;
25932;SDS011;13731;51.166;4.474;2022-08-05T15:00:35;4.70;;;4.40;;
25932;SDS011;13731;51.166;4.474;2022-08-05T15:03:01;5.80;;;5.20;;
25932;SDS011;13731;51.166;4.474;2022-08-05T15:05:29;5.57;;;5.20;;
25932;SDS011;13731;51.166;4.474;2022-08-05T15:07:56;6.30;;;5.93;;
25932;SDS011;13731;51.166;4.474;2022-08-05T15:10:22;7.38;;;6.88;;
25932;SDS011;13731;51.166;4.474;2022-08-05T15:12:48;6.60;;;6.28;;
25932;SDS011;13731;51.166;4.474;2022-08-05T15:15:14;7.22;;;6.90;;
25932;SDS011;13731;51.166;4.474;2022-08-05T15:17:40;8.20;;;7.70;;
25932;SDS011;13731;51.166;4.474;2022-08-05T15:20:07;10.88;;;10.30;;
25932;SDS011;13731;51.166;4.474;2022-08-05T15:22:34;10.88;;;10.27;;
25932;SDS011;13731;51.166;4.474;2022-08-05T15:25:00;8.73;;;8.00;;
25932;SDS011;13731;51.166;4.474;2022-08-05T15:27:26;11.50;;;10.77;;
25932;SDS011;13731;51.166;4.474;2022-08-05T15:29:52;10.55;;;9.93;;
25932;SDS011;13731;51.166;4.474;2022-08-05T15:32:17;9.93;;;8.93;;